Time;durP1;ratioP1;P1;durP2;ratioP2;P2;SDS_P1;SDS_P2;PMS_P1;PMS_P2;Temp;Humidity;BMP_temperature;BMP_pressure;BME280_temperature;BME280_humidity;BME280_pressure;Samples;Min_cycle;Max_cycle;Signal;HPM_P1;HPM_P2
2022/05/09 00:01:50;;;;;;;3.45;1.60;;;;;;;;;;4949961;28;20380;-63
2022/05/09 00:04:16;;;;;;;2.05;1.42;;;;;;;;;;4950040;28;20108;-63
2022/05/09 00:06:41;;;;;;;2.53;1.70;;;;;;;;;;4950142;28;20336;-63
2022/05/09 00:09:07;;;;;;;1.73;1.25;;;;;;;;;;4949963;28;20519;-63
2022/05/09 00:11:32;;;;;;;2.28;1.65;;;;;;;;;;4950173;28;20513;-64
2022/05/09 00:13:58;;;;;;;1.70;1.35;;;;;;;;;;4950483;28;20457;-64
2022/05/09 00:16:23;;;;;;;2.20;1.42;;;;;;;;;;4949396;28;20101;-63
2022/05/09 00:18:50;;;;;;;2.03;1.42;;;;;;;;;;4949945;28;20472;-64
2022/05/09 00:21:15;;;;;;;2.47;2.00;;;;;;;;;;4949457;28;20422;-63
2022/05/09 00:23:40;;;;;;;2.08;1.60;;;;;;;;;;4951703;28;20327;-63
2022/05/09 00:26:07;;;;;;;3.83;1.58;;;;;;;;;;4949863;28;20052;-63
2022/05/09 00:28:33;;;;;;;2.20;1.42;;;;;;;;;;4950119;28;20511;-64
2022/05/09 00:30:58;;;;;;;1.73;1.23;;;;;;;;;;4949545;28;20459;-63
2022/05/09 00:33:27;;;;;;;3.05;1.77;;;;;;;;;;4949900;28;20030;-63
2022/05/09 00:35:53;;;;;;;2.50;1.57;;;;;;;;;;4949613;28;20038;-63
2022/05/09 00:38:18;;;;;;;3.70;1.90;;;;;;;;;;4949479;28;20441;-63
2022/05/09 00:43:33;;;;;;;4.28;1.90;;;;;;;;;;4951124;28;20472;-63
2022/05/09 00:45:58;;;;;;;3.50;2.03;;;;;;;;;;4949704;28;20434;-63
2022/05/09 00:48:23;;;;;;;3.45;1.27;;;;;;;;;;4949359;28;20505;-63
2022/05/09 00:50:49;;;;;;;2.25;1.58;;;;;;;;;;4949546;28;20504;-64
2022/05/09 00:53:14;;;;;;;2.50;1.52;;;;;;;;;;4949557;28;20400;-63
2022/05/09 00:55:42;;;;;;;2.70;1.60;;;;;;;;;;4931857;28;20318;-63
2022/05/09 00:58:21;;;;;;;1.77;1.42;;;;;;;;;;4949587;28;20484;-63
2022/05/09 01:00:47;;;;;;;2.47;1.85;;;;;;;;;;4947036;28;20493;-63
2022/05/09 01:03:18;;;;;;;2.65;1.42;;;;;;;;;;4953599;28;20204;-63
2022/05/09 01:05:50;;;;;;;2.35;1.65;;;;;;;;;;4949190;28;20421;-64
2022/05/09 01:08:15;;;;;;;2.33;1.48;;;;;;;;;;4949041;28;20353;-63
2022/05/09 01:10:41;;;;;;;2.92;1.83;;;;;;;;;;4949499;28;20022;-63
2022/05/09 01:13:10;;;;;;;2.00;1.40;;;;;;;;;;4949038;28;20437;-64
2022/05/09 01:15:35;;;;;;;2.40;1.92;;;;;;;;;;4931696;28;20465;-63
2022/05/09 01:18:04;;;;;;;2.10;1.27;;;;;;;;;;4950673;28;20449;-63
2022/05/09 01:20:29;;;;;;;1.90;1.48;;;;;;;;;;4931618;28;20433;-64
2022/05/09 01:22:58;;;;;;;2.20;1.27;;;;;;;;;;4950086;28;20353;-63
2022/05/09 01:25:24;;;;;;;1.80;1.50;;;;;;;;;;4950655;28;20418;-63
2022/05/09 01:27:49;;;;;;;3.05;2.05;;;;;;;;;;4949178;28;20487;-63
2022/05/09 01:30:36;;;;;;;2.50;1.35;;;;;;;;;;4949135;28;20417;-63
2022/05/09 01:33:32;;;;;;;2.50;1.60;;;;;;;;;;4952523;28;20357;-63
2022/05/09 01:36:01;;;;;;;3.20;1.60;;;;;;;;;;4947359;28;20338;-63
2022/05/09 01:38:26;;;;;;;;;;;;;;;;;;4935793;28;20516;-63
2022/05/09 01:40:52;;;;;;;1.52;1.20;;;;;;;;;;4953156;28;20232;-65
2022/05/09 01:43:36;;;;;;;1.85;1.30;;;;;;;;;;4953326;28;20325;-63
2022/05/09 01:46:03;;;;;;;2.47;1.70;;;;;;;;;;4952501;28;20497;-67
2022/05/09 01:51:14;;;;;;;2.20;1.35;;;;;;;;;;4954040;28;20360;-63
2022/05/09 01:53:40;;;;;;;3.45;1.58;;;;;;;;;;4934703;28;20372;-63
2022/05/09 01:56:05;;;;;;;2.17;1.60;;;;;;;;;;4953487;28;20382;-63
2022/05/09 01:58:31;;;;;;;1.98;1.65;;;;;;;;;;4953733;28;20401;-64
2022/05/09 02:00:57;;;;;;;1.48;1.38;;;;;;;;;;4952206;28;20575;-63
2022/05/09 02:03:22;;;;;;;2.15;1.20;;;;;;;;;;4934944;28;20030;-63
2022/05/09 02:05:48;;;;;;;2.22;1.60;;;;;;;;;;4951564;28;20064;-64
2022/05/09 02:08:13;;;;;;;2.80;1.60;;;;;;;;;;4952323;28;20034;-63
2022/05/09 02:10:41;;;;;;;3.13;1.30;;;;;;;;;;4951922;28;20516;-63
2022/05/09 02:13:07;;;;;;;2.15;1.63;;;;;;;;;;4952438;28;20413;-63
2022/05/09 02:15:32;;;;;;;2.42;1.52;;;;;;;;;;4934759;28;20472;-63
2022/05/09 02:17:58;;;;;;;2.42;1.80;;;;;;;;;;4952102;28;20353;-64
2022/05/09 02:20:24;;;;;;;2.05;1.45;;;;;;;;;;4951761;28;20437;-63
2022/05/09 02:22:49;;;;;;;3.17;1.42;;;;;;;;;;4952578;28;20433;-63
2022/05/09 02:25:29;;;;;;;2.05;1.52;;;;;;;;;;4951880;28;20427;-63
2022/05/09 02:28:00;;;;;;;3.75;1.42;;;;;;;;;;4951902;28;20429;-65
2022/05/09 02:30:26;;;;;;;1.90;1.58;;;;;;;;;;4953292;28;20456;-63
2022/05/09 02:32:52;;;;;;;2.28;1.42;;;;;;;;;;4953040;28;20453;-63
2022/05/09 02:35:19;;;;;;;2.03;1.50;;;;;;;;;;4953193;28;20319;-63
2022/05/09 02:37:44;;;;;;;1.90;1.45;;;;;;;;;;4951274;28;20025;-63
2022/05/09 02:40:11;;;;;;;1.75;1.30;;;;;;;;;;4930120;28;20068;-64
2022/05/09 02:42:37;;;;;;;3.80;1.58;;;;;;;;;;4951479;28;20552;-64
2022/05/09 02:45:03;;;;;;;2.83;1.65;;;;;;;;;;4951822;28;20565;-63
2022/05/09 02:47:29;;;;;;;2.65;1.38;;;;;;;;;;4951351;28;20421;-63
2022/05/09 02:49:54;;;;;;;5.05;1.85;;;;;;;;;;4951167;28;20452;-63
2022/05/09 02:52:19;;;;;;;2.97;1.45;;;;;;;;;;4953715;28;20045;-63
2022/05/09 02:54:44;;;;;;;2.80;1.35;;;;;;;;;;4949729;28;20050;-63
2022/05/09 02:57:10;;;;;;;2.38;1.67;;;;;;;;;;4951318;28;20385;-63
2022/05/09 02:59:36;;;;;;;1.38;1.20;;;;;;;;;;4951969;28;20436;-67
2022/05/09 03:02:01;;;;;;;4.68;1.77;;;;;;;;;;4951172;28;20318;-64
2022/05/09 03:04:39;;;;;;;2.78;1.80;;;;;;;;;;4952287;28;20527;-63
2022/05/09 03:07:09;;;;;;;2.90;1.77;;;;;;;;;;4951512;28;20425;-64
2022/05/09 03:09:35;;;;;;;2.25;1.52;;;;;;;;;;4952306;28;20365;-63
2022/05/09 03:12:02;;;;;;;1.90;1.50;;;;;;;;;;4952117;28;20057;-64
2022/05/09 03:14:27;;;;;;;2.72;1.95;;;;;;;;;;4951111;28;20435;-63
2022/05/09 03:16:52;;;;;;;2.35;1.73;;;;;;;;;;4950747;28;20042;-64
2022/05/09 03:19:18;;;;;;;2.75;1.90;;;;;;;;;;4951189;28;20385;-63
2022/05/09 03:21:45;;;;;;;3.00;1.50;;;;;;;;;;4951613;28;20336;-63
2022/05/09 03:24:10;;;;;;;2.17;1.42;;;;;;;;;;4951920;28;20412;-63
2022/05/09 03:26:35;;;;;;;2.33;1.55;;;;;;;;;;4950878;28;20411;-63
2022/05/09 03:29:01;;;;;;;2.17;1.50;;;;;;;;;;4951334;28;20376;-63
2022/05/09 03:31:26;;;;;;;3.70;1.80;;;;;;;;;;4950843;28;20161;-64
2022/05/09 03:33:51;;;;;;;2.60;1.70;;;;;;;;;;4950582;28;20433;-64
2022/05/09 03:36:16;;;;;;;2.88;1.75;;;;;;;;;;4950467;28;20096;-63
2022/05/09 03:38:42;;;;;;;3.20;1.88;;;;;;;;;;4950627;28;20353;-64
2022/05/09 03:41:07;;;;;;;2.15;1.55;;;;;;;;;;4951280;28;20429;-63
2022/05/09 03:43:33;;;;;;;2.10;1.50;;;;;;;;;;4950345;28;20500;-63
2022/05/09 03:45:58;;;;;;;2.97;1.55;;;;;;;;;;4933082;28;20444;-63
2022/05/09 03:48:24;;;;;;;3.55;1.67;;;;;;;;;;4950327;28;20034;-64
2022/05/09 03:50:50;;;;;;;3.90;2.05;;;;;;;;;;4950918;28;20416;-63
2022/05/09 03:53:15;;;;;;;3.40;1.80;;;;;;;;;;4950219;28;20433;-63
2022/05/09 03:55:41;;;;;;;2.53;1.55;;;;;;;;;;4951792;28;20085;-64
2022/05/09 03:58:07;;;;;;;2.17;1.60;;;;;;;;;;4950625;28;20318;-65
2022/05/09 04:00:33;;;;;;;2.05;1.50;;;;;;;;;;4950579;28;20366;-63
2022/05/09 04:02:59;;;;;;;3.22;1.67;;;;;;;;;;4949531;28;20080;-63
2022/05/09 04:05:30;;;;;;;2.85;2.17;;;;;;;;;;4949822;28;20361;-63
2022/05/09 04:07:57;;;;;;;2.20;1.45;;;;;;;;;;4949828;28;20033;-64
2022/05/09 04:10:25;;;;;;;2.80;1.75;;;;;;;;;;4949722;28;20406;-63
2022/05/09 04:12:50;;;;;;;2.53;1.80;;;;;;;;;;4950070;28;20025;-63
2022/05/09 04:18:01;;;;;;;2.13;1.73;;;;;;;;;;4950902;28;20417;-64
2022/05/09 04:20:29;;;;;;;4.40;1.85;;;;;;;;;;4950640;28;20389;-63
2022/05/09 04:22:56;;;;;;;2.00;1.70;;;;;;;;;;4950276;28;20306;-64
2022/05/09 04:25:22;;;;;;;2.63;1.73;;;;;;;;;;4950379;28;20373;-63
2022/05/09 04:27:48;;;;;;;4.72;1.60;;;;;;;;;;4949692;28;20038;-63
2022/05/09 04:30:14;;;;;;;2.00;1.60;;;;;;;;;;4951228;28;20044;-64
2022/05/09 04:32:40;;;;;;;2.20;1.85;;;;;;;;;;4949937;28;20345;-63
2022/05/09 04:35:06;;;;;;;1.80;1.58;;;;;;;;;;4949958;28;20511;-63
2022/05/09 04:37:33;;;;;;;2.80;1.73;;;;;;;;;;4949376;28;20441;-63
2022/05/09 04:39:59;;;;;;;3.13;2.05;;;;;;;;;;4949809;28;20059;-63
2022/05/09 04:42:24;;;;;;;2.45;1.45;;;;;;;;;;4950110;28;20599;-64
2022/05/09 04:44:50;;;;;;;2.92;1.60;;;;;;;;;;4949861;28;20461;-65
2022/05/09 04:47:15;;;;;;;3.97;1.63;;;;;;;;;;4949527;28;20432;-64
2022/05/09 04:49:40;;;;;;;2.15;1.75;;;;;;;;;;4949769;28;20455;-64
2022/05/09 04:52:06;;;;;;;5.75;2.03;;;;;;;;;;4950391;28;20421;-63
2022/05/09 04:54:31;;;;;;;4.72;2.20;;;;;;;;;;4949647;28;20366;-64
2022/05/09 04:56:57;;;;;;;3.13;2.00;;;;;;;;;;4949524;28;20426;-63
2022/05/09 04:59:22;;;;;;;2.15;1.40;;;;;;;;;;4949715;28;20382;-63
2022/05/09 05:01:47;;;;;;;5.72;1.95;;;;;;;;;;4949534;28;20440;-63
2022/05/09 05:04:14;;;;;;;2.45;1.70;;;;;;;;;;4949843;28;20368;-63
2022/05/09 05:06:39;;;;;;;3.25;1.73;;;;;;;;;;4950891;28;20112;-63
2022/05/09 05:09:04;;;;;;;2.72;1.80;;;;;;;;;;4955254;28;20026;-63
2022/05/09 05:11:30;;;;;;;5.28;1.90;;;;;;;;;;4953058;28;20320;-64
2022/05/09 05:13:55;;;;;;;2.78;1.98;;;;;;;;;;4954611;28;20503;-63
2022/05/09 05:16:59;;;;;;;3.13;1.45;;;;;;;;;;4952989;28;20468;-63
2022/05/09 05:19:05;;;;;;;2.08;1.50;;;;;;;;;;4952875;28;20034;-63
2022/05/09 05:21:31;;;;;;;3.75;1.70;;;;;;;;;;4951458;28;20452;-64
2022/05/09 05:23:56;;;;;;;3.05;1.60;;;;;;;;;;4954109;28;20437;-63
2022/05/09 05:26:21;;;;;;;2.20;1.58;;;;;;;;;;4953119;28;20379;-63
2022/05/09 05:28:47;;;;;;;2.53;1.80;;;;;;;;;;4953376;28;20389;-64
2022/05/09 05:31:16;;;;;;;1.92;1.52;;;;;;;;;;4952867;28;20436;-64
2022/05/09 05:33:44;;;;;;;3.17;1.70;;;;;;;;;;4952632;28;20093;-63
2022/05/09 05:36:09;;;;;;;2.67;2.00;;;;;;;;;;4953808;28;20387;-64
2022/05/09 05:38:34;;;;;;;2.25;1.85;;;;;;;;;;4953324;28;20368;-63
2022/05/09 05:41:00;;;;;;;3.03;1.63;;;;;;;;;;4954333;28;20393;-64
2022/05/09 05:43:25;;;;;;;3.17;1.90;;;;;;;;;;4954193;28;20467;-63
2022/05/09 05:45:55;;;;;;;2.67;1.60;;;;;;;;;;4953121;28;20529;-63
2022/05/09 05:48:20;;;;;;;2.92;1.80;;;;;;;;;;4954544;28;20405;-64
2022/05/09 05:50:46;;;;;;;2.47;1.70;;;;;;;;;;4953990;28;20026;-63
2022/05/09 05:53:11;;;;;;;1.48;1.38;;;;;;;;;;4952630;28;20438;-63
2022/05/09 05:55:36;;;;;;;2.10;1.52;;;;;;;;;;4952908;28;20403;-63
2022/05/09 05:58:02;;;;;;;2.97;1.65;;;;;;;;;;4952706;28;20081;-63
2022/05/09 06:00:28;;;;;;;4.30;1.55;;;;;;;;;;4952054;28;20400;-64
2022/05/09 06:02:53;;;;;;;2.53;1.48;;;;;;;;;;4952228;28;20026;-63
2022/05/09 06:05:19;;;;;;;2.30;1.70;;;;;;;;;;4953295;28;20431;-63
2022/05/09 06:07:48;;;;;;;2.33;1.40;;;;;;;;;;4952073;28;20428;-63
2022/05/09 06:10:15;;;;;;;1.67;1.40;;;;;;;;;;4934602;28;20445;-64
2022/05/09 06:12:41;;;;;;;2.25;1.60;;;;;;;;;;4951862;28;20334;-63
2022/05/09 06:15:25;;;;;;;3.42;1.58;;;;;;;;;;4953523;28;20344;-64
2022/05/09 06:17:52;;;;;;;2.03;1.40;;;;;;;;;;4931531;28;20354;-63
2022/05/09 06:20:18;;;;;;;2.13;1.63;;;;;;;;;;4933344;28;20458;-63
2022/05/09 06:22:43;;;;;;;3.05;1.75;;;;;;;;;;4933229;28;20438;-63
2022/05/09 06:25:12;;;;;;;2.03;1.27;;;;;;;;;;4932678;28;20394;-64
2022/05/09 06:27:38;;;;;;;2.38;1.40;;;;;;;;;;4932699;28;20398;-63
2022/05/09 06:30:05;;;;;;;3.97;1.83;;;;;;;;;;4932675;28;20307;-64
2022/05/09 06:32:31;;;;;;;1.85;1.30;;;;;;;;;;4932446;28;20383;-64
2022/05/09 06:34:56;;;;;;;2.63;1.80;;;;;;;;;;4933072;28;20442;-63
2022/05/09 06:37:21;;;;;;;4.35;1.92;;;;;;;;;;4933741;28;20464;-64
2022/05/09 06:39:47;;;;;;;1.55;1.27;;;;;;;;;;4932675;28;20038;-63
2022/05/09 06:42:13;;;;;;;3.42;1.40;;;;;;;;;;4932145;28;20365;-63
2022/05/09 06:44:38;;;;;;;2.53;1.50;;;;;;;;;;4932247;28;20348;-63
2022/05/09 06:47:04;;;;;;;1.92;1.33;;;;;;;;;;4931906;28;20488;-63
2022/05/09 06:49:30;;;;;;;2.25;1.65;;;;;;;;;;4931997;28;20460;-63
2022/05/09 06:51:56;;;;;;;2.20;1.55;;;;;;;;;;4932025;28;20434;-63
2022/05/09 06:54:22;;;;;;;2.28;1.50;;;;;;;;;;4932708;28;20081;-63
2022/05/09 06:56:48;;;;;;;3.70;1.60;;;;;;;;;;4933080;28;20354;-64
2022/05/09 06:59:14;;;;;;;1.98;1.60;;;;;;;;;;4931988;28;20299;-63
2022/05/09 07:01:39;;;;;;;1.95;1.40;;;;;;;;;;4932652;28;20420;-63
2022/05/09 07:04:05;;;;;;;2.83;1.55;;;;;;;;;;4932701;28;20341;-63
2022/05/09 07:06:30;;;;;;;3.63;1.90;;;;;;;;;;4931672;28;20502;-63
2022/05/09 07:08:56;;;;;;;2.40;1.55;;;;;;;;;;4933517;28;20345;-64
2022/05/09 07:11:21;;;;;;;2.42;1.67;;;;;;;;;;4931907;28;20492;-63
2022/05/09 07:13:47;;;;;;;2.13;1.30;;;;;;;;;;4932347;28;20404;-63
2022/05/09 07:16:13;;;;;;;2.38;1.40;;;;;;;;;;4940140;28;20353;-63
2022/05/09 07:18:39;;;;;;;2.55;1.10;;;;;;;;;;4952283;28;20420;-64
2022/05/09 07:21:05;;;;;;;1.50;1.20;;;;;;;;;;4951026;28;20346;-63
2022/05/09 07:23:30;;;;;;;1.88;1.67;;;;;;;;;;4951491;28;20357;-65
2022/05/09 07:25:56;;;;;;;2.30;1.30;;;;;;;;;;4950597;28;20342;-63
2022/05/09 07:28:21;;;;;;;1.48;1.27;;;;;;;;;;4950376;28;20372;-63
2022/05/09 07:30:47;;;;;;;1.85;1.30;;;;;;;;;;4951292;28;20432;-64
2022/05/09 07:33:15;;;;;;;2.22;1.50;;;;;;;;;;4950132;28;20060;-64
2022/05/09 07:35:42;;;;;;;1.73;1.50;;;;;;;;;;4951473;28;20520;-62
2022/05/09 07:38:07;;;;;;;1.90;1.30;;;;;;;;;;4950435;28;20038;-63
2022/05/09 07:40:33;;;;;;;3.03;1.70;;;;;;;;;;4950313;28;20144;-63
2022/05/09 07:42:58;;;;;;;2.65;1.48;;;;;;;;;;4949947;28;20449;-63
2022/05/09 07:45:24;;;;;;;1.50;1.30;;;;;;;;;;4950302;28;20460;-63
2022/05/09 07:47:49;;;;;;;3.22;1.20;;;;;;;;;;4950633;28;20437;-62
2022/05/09 07:50:16;;;;;;;1.80;1.38;;;;;;;;;;4949782;28;20360;-63
2022/05/09 07:52:44;;;;;;;1.85;1.38;;;;;;;;;;4950805;28;20425;-63
2022/05/09 07:55:11;;;;;;;2.47;1.50;;;;;;;;;;4950121;28;20458;-67
2022/05/09 07:57:36;;;;;;;2.15;1.63;;;;;;;;;;4950682;28;20413;-63
2022/05/09 08:00:05;;;;;;;2.97;1.40;;;;;;;;;;4951287;28;20475;-63
2022/05/09 08:02:32;;;;;;;;;;;;;;;;;;4948409;28;20369;-63
2022/05/09 08:04:57;;;;;;;3.60;1.92;;;;;;;;;;4950861;28;20272;-64
2022/05/09 08:07:23;;;;;;;2.47;1.38;;;;;;;;;;4950715;28;20401;-63
2022/05/09 08:09:48;;;;;;;2.42;1.48;;;;;;;;;;4951761;28;20413;-63
2022/05/09 08:12:14;;;;;;;1.90;1.38;;;;;;;;;;4950443;28;20473;-64
2022/05/09 08:14:39;;;;;;;1.70;1.15;;;;;;;;;;4950569;28;20429;-63
2022/05/09 08:17:08;;;;;;;1.63;1.20;;;;;;;;;;4949449;28;20412;-64
2022/05/09 08:19:33;;;;;;;2.20;1.25;;;;;;;;;;4949819;28;20463;-63
2022/05/09 08:21:58;;;;;;;1.35;1.17;;;;;;;;;;4950321;28;20438;-63
2022/05/09 08:24:25;;;;;;;1.80;1.25;;;;;;;;;;4950431;28;20417;-63
2022/05/09 08:26:50;;;;;;;1.73;1.20;;;;;;;;;;4950031;28;20144;-63
2022/05/09 08:29:15;;;;;;;1.85;1.33;;;;;;;;;;4949016;28;20070;-63
2022/05/09 08:31:41;;;;;;;3.15;1.50;;;;;;;;;;4951106;28;20053;-63
2022/05/09 08:34:06;;;;;;;1.85;1.20;;;;;;;;;;4949538;28;20030;-63
2022/05/09 08:36:48;;;;;;;2.30;1.48;;;;;;;;;;4950056;28;20109;-64
2022/05/09 08:39:14;;;;;;;2.40;1.50;;;;;;;;;;4949914;28;20418;-65
2022/05/09 08:41:45;;;;;;;1.88;1.02;;;;;;;;;;4949011;28;20442;-63
2022/05/09 08:44:52;;;;;;;2.00;1.00;;;;;;;;;;4949099;28;20038;-63
2022/05/09 08:47:25;;;;;;;5.22;1.13;;;;;;;;;;4949758;28;20381;-63
2022/05/09 08:50:21;;;;;;;1.90;1.10;;;;;;;;;;4932035;28;20108;-63
2022/05/09 08:52:56;;;;;;;1.38;0.90;;;;;;;;;;4950007;28;20493;-63
2022/05/09 08:55:33;;;;;;;2.58;1.30;;;;;;;;;;4932598;28;20417;-63
2022/05/09 08:58:03;;;;;;;1.85;1.20;;;;;;;;;;4951401;28;20075;-63
2022/05/09 09:00:29;;;;;;;1.90;1.20;;;;;;;;;;4932060;28;20345;-63
2022/05/09 09:03:34;;;;;;;1.63;1.15;;;;;;;;;;4931895;28;20511;-63
2022/05/09 09:06:05;;;;;;;1.35;1.10;;;;;;;;;;4932609;28;20492;-64
2022/05/09 09:08:51;;;;;;;3.58;1.70;;;;;;;;;;4949285;28;20030;-64
2022/05/09 09:11:28;;;;;;;1.60;1.05;;;;;;;;;;4949984;28;20057;-64
2022/05/09 09:14:16;;;;;;;1.73;1.10;;;;;;;;;;4931825;28;20333;-64
2022/05/09 09:17:06;;;;;;;1.67;1.10;;;;;;;;;;4931277;28;20054;-63
2022/05/09 09:19:36;;;;;;;1.17;0.80;;;;;;;;;;4949798;28;20084;-64
2022/05/09 09:22:20;;;;;;;4.00;1.27;;;;;;;;;;4950362;28;20334;-62
2022/05/09 09:24:54;;;;;;;2.55;1.27;;;;;;;;;;4949413;28;20384;-63
2022/05/09 09:27:33;;;;;;;1.88;1.27;;;;;;;;;;4948983;28;20060;-63
2022/05/09 09:30:08;;;;;;;1.70;1.17;;;;;;;;;;4949211;28;20093;-64
2022/05/09 09:32:34;;;;;;;1.15;1.00;;;;;;;;;;4949282;28;20441;-63
2022/05/09 09:35:14;;;;;;;1.50;1.00;;;;;;;;;;4949036;28;20331;-63
2022/05/09 09:38:00;;;;;;;1.58;1.05;;;;;;;;;;4949643;28;20057;-64
2022/05/09 09:40:26;;;;;;;1.92;1.20;;;;;;;;;;4948937;28;20323;-64
2022/05/09 09:42:53;;;;;;;3.13;1.20;;;;;;;;;;4949050;28;20369;-63
2022/05/09 09:45:50;;;;;;;4.28;1.40;;;;;;;;;;4950360;28;20052;-63
2022/05/09 09:48:23;;;;;;;1.90;1.10;;;;;;;;;;4948850;28;20460;-63
2022/05/09 09:51:03;;;;;;;2.38;1.42;;;;;;;;;;4948793;28;20483;-63
2022/05/09 09:53:40;;;;;;;2.03;1.30;;;;;;;;;;4951445;28;20418;-64
2022/05/09 09:56:27;;;;;;;2.22;1.35;;;;;;;;;;4950063;28;20536;-64
2022/05/09 09:59:09;;;;;;;2.30;1.20;;;;;;;;;;4951231;28;20425;-63
2022/05/09 10:01:35;;;;;;;2.65;1.23;;;;;;;;;;4952122;28;20417;-63
2022/05/09 10:04:15;;;;;;;2.47;1.20;;;;;;;;;;4952629;28;20321;-63
2022/05/09 10:07:01;;;;;;;2.75;1.40;;;;;;;;;;4934596;28;20460;-63
2022/05/09 10:10:06;;;;;;;2.80;1.15;;;;;;;;;;4951698;28;20053;-63
2022/05/09 10:12:32;;;;;;;1.73;1.20;;;;;;;;;;4950865;28;20365;-63
2022/05/09 10:14:58;;;;;;;1.75;1.00;;;;;;;;;;4953068;28;20532;-64
2022/05/09 10:17:33;;;;;;;2.10;1.58;;;;;;;;;;4951777;28;20535;-64
2022/05/09 10:20:00;;;;;;;1.50;1.40;;;;;;;;;;4952337;28;20507;-63
2022/05/09 10:25:24;;;;;;;1.95;1.02;;;;;;;;;;4951854;28;20468;-63
2022/05/09 10:28:15;;;;;;;2.33;1.17;;;;;;;;;;4934447;28;20508;-64
2022/05/09 10:30:42;;;;;;;1.90;1.30;;;;;;;;;;4934485;28;20064;-63
2022/05/09 10:33:33;;;;;;;1.95;1.00;;;;;;;;;;4934174;28;20030;-63
2022/05/09 10:36:02;;;;;;;2.08;1.15;;;;;;;;;;4952066;28;20365;-63
2022/05/09 10:38:36;;;;;;;;;;;;;;;;;;4934351;28;20333;-64
2022/05/09 10:41:09;;;;;;;1.50;1.02;;;;;;;;;;4933743;28;20332;-63
2022/05/09 10:43:57;;;;;;;1.80;1.20;;;;;;;;;;4952971;28;20464;-63
2022/05/09 10:46:32;;;;;;;1.75;1.25;;;;;;;;;;4933053;28;20409;-63
2022/05/09 10:49:43;;;;;;;1.50;1.00;;;;;;;;;;4934870;28;20428;-63
2022/05/09 10:52:33;;;;;;;1.60;1.00;;;;;;;;;;4941049;28;20352;-64
2022/05/09 10:55:16;;;;;;;1.60;1.10;;;;;;;;;;4950922;28;20049;-63
2022/05/09 10:58:09;;;;;;;3.28;1.92;;;;;;;;;;4950363;28;20385;-64
2022/05/09 11:00:39;;;;;;;1.98;0.85;;;;;;;;;;4949662;28;20381;-64
2022/05/09 11:03:20;;;;;;;1.58;1.10;;;;;;;;;;4933325;28;20026;-64
2022/05/09 11:06:07;;;;;;;1.48;0.93;;;;;;;;;;4949751;28;20112;-63
2022/05/09 11:08:45;;;;;;;2.45;1.50;;;;;;;;;;4951572;28;20511;-63
2022/05/09 11:11:22;;;;;;;1.98;1.13;;;;;;;;;;4933772;28;20495;-64
2022/05/09 11:13:56;;;;;;;1.73;1.33;;;;;;;;;;4933848;28;20025;-63
2022/05/09 11:16:28;;;;;;;1.27;1.00;;;;;;;;;;4951905;28;20389;-63
2022/05/09 11:19:05;;;;;;;2.88;1.25;;;;;;;;;;4952606;28;20357;-64
2022/05/09 11:21:33;;;;;;;2.40;1.27;;;;;;;;;;4951028;28;20463;-64
2022/05/09 11:24:19;;;;;;;2.10;1.10;;;;;;;;;;4933504;28;20317;-65
2022/05/09 11:26:51;;;;;;;2.10;1.10;;;;;;;;;;4950502;28;20089;-63
2022/05/09 11:29:35;;;;;;;2.10;1.33;;;;;;;;;;4933050;28;20409;-65
2022/05/09 11:32:41;;;;;;;1.38;0.80;;;;;;;;;;4933587;28;20033;-63
2022/05/09 11:35:25;;;;;;;1.15;1.00;;;;;;;;;;4950703;28;20469;-63
2022/05/09 11:38:18;;;;;;;2.05;0.95;;;;;;;;;;4950407;28;20382;-63
2022/05/09 11:41:14;;;;;;;1.90;0.75;;;;;;;;;;4950148;28;20401;-63
2022/05/09 11:43:43;;;;;;;2.38;1.10;;;;;;;;;;4932907;28;20457;-65
2022/05/09 11:46:23;;;;;;;2.22;0.98;;;;;;;;;;4951226;28;20345;-65
2022/05/09 11:49:06;;;;;;;1.45;0.95;;;;;;;;;;4950576;28;20503;-64
2022/05/09 11:51:38;;;;;;;1.90;1.10;;;;;;;;;;4951118;28;20416;-63
2022/05/09 11:54:07;;;;;;;1.20;0.90;;;;;;;;;;4951420;28;20561;-64
2022/05/09 11:56:33;;;;;;;3.08;1.40;;;;;;;;;;4933327;28;20046;-63
2022/05/09 11:58:59;;;;;;;1.80;1.08;;;;;;;;;;4950109;28;20452;-63
2022/05/09 12:01:52;;;;;;;3.25;1.05;;;;;;;;;;4932650;28;20048;-63
2022/05/09 12:04:47;;;;;;;1.77;1.08;;;;;;;;;;4950020;28;20499;-65
2022/05/09 12:07:28;;;;;;;1.23;1.10;;;;;;;;;;4940856;28;20372;-64
2022/05/09 12:10:00;;;;;;;1.27;0.80;;;;;;;;;;4950074;28;20587;-63
2022/05/09 12:12:37;;;;;;;2.35;0.88;;;;;;;;;;4950720;28;20325;-63
2022/05/09 12:15:09;;;;;;;2.55;0.90;;;;;;;;;;4949527;28;20738;-64
2022/05/09 12:17:39;;;;;;;1.63;0.80;;;;;;;;;;4931225;28;20445;-64
2022/05/09 12:20:37;;;;;;;1.33;1.02;;;;;;;;;;4949788;28;20358;-64
2022/05/09 12:23:09;;;;;;;1.40;0.80;;;;;;;;;;4950286;28;20365;-63
2022/05/09 12:25:41;;;;;;;5.25;1.30;;;;;;;;;;4932524;28;20582;-64
2022/05/09 12:28:16;;;;;;;1.58;0.85;;;;;;;;;;4950184;28;20402;-65
2022/05/09 12:30:45;;;;;;;1.77;0.75;;;;;;;;;;4949985;28;20357;-63
2022/05/09 12:33:21;;;;;;;1.20;0.70;;;;;;;;;;4951324;28;20034;-63
2022/05/09 12:35:48;;;;;;;3.40;0.93;;;;;;;;;;4949910;28;20468;-63
2022/05/09 12:38:13;;;;;;;1.63;1.17;;;;;;;;;;4932394;28;20449;-64
2022/05/09 12:40:40;;;;;;;2.58;0.95;;;;;;;;;;4950079;28;20500;-63
2022/05/09 12:43:06;;;;;;;1.65;0.80;;;;;;;;;;4949565;28;20377;-63
2022/05/09 12:45:32;;;;;;;1.38;0.70;;;;;;;;;;4950602;28;20033;-63
2022/05/09 12:47:58;;;;;;;1.65;1.05;;;;;;;;;;4950119;28;20463;-64
2022/05/09 12:50:27;;;;;;;1.83;0.90;;;;;;;;;;4949213;28;20563;-63
2022/05/09 12:53:14;;;;;;;1.42;0.80;;;;;;;;;;4932445;28;20475;-63
2022/05/09 12:55:53;;;;;;;4.30;1.00;;;;;;;;;;4932380;28;20319;-63
2022/05/09 12:58:34;;;;;;;3.80;1.38;;;;;;;;;;4950286;28;20446;-63
2022/05/09 13:01:05;;;;;;;1.25;0.98;;;;;;;;;;4950719;28;20409;-63
2022/05/09 13:03:32;;;;;;;1.42;1.00;;;;;;;;;;4949184;28;20459;-63
2022/05/09 13:06:16;;;;;;;1.83;0.90;;;;;;;;;;4932374;28;20437;-63
2022/05/09 13:08:42;;;;;;;2.50;1.73;;;;;;;;;;4932390;28;20463;-64
2022/05/09 13:11:14;;;;;;;1.58;1.00;;;;;;;;;;4949749;28;20457;-63
2022/05/09 13:13:44;;;;;;;4.15;1.23;;;;;;;;;;4949830;28;20400;-64
2022/05/09 13:16:10;;;;;;;0.88;0.85;;;;;;;;;;4948725;28;20525;-64
2022/05/09 13:18:36;;;;;;;1.33;0.95;;;;;;;;;;4949764;28;20294;-63
2022/05/09 13:21:08;;;;;;;2.78;0.93;;;;;;;;;;4949338;28;20476;-64
2022/05/09 13:26:58;;;;;;;2.38;0.73;;;;;;;;;;4950565;28;20056;-64
2022/05/09 13:29:31;;;;;;;3.55;1.20;;;;;;;;;;4935109;28;20448;-64
2022/05/09 13:31:57;;;;;;;3.65;1.00;;;;;;;;;;4953141;28;20373;-63
2022/05/09 13:34:33;;;;;;;1.52;0.88;;;;;;;;;;4935344;28;20459;-63
2022/05/09 13:37:01;;;;;;;2.63;1.05;;;;;;;;;;4952457;28;20108;-64
2022/05/09 13:39:36;;;;;;;4.40;1.00;;;;;;;;;;4953594;28;20018;-63
2022/05/09 13:42:26;;;;;;;1.23;1.00;;;;;;;;;;4952570;28;20493;-64
2022/05/09 13:44:53;;;;;;;1.25;0.90;;;;;;;;;;4946282;28;20465;-63
2022/05/09 13:47:20;;;;;;;1.42;1.00;;;;;;;;;;4952600;28;20393;-63
2022/05/09 13:49:48;;;;;;;1.10;0.85;;;;;;;;;;4935085;28;20376;-63
2022/05/09 13:52:34;;;;;;;1.40;0.90;;;;;;;;;;4952174;28;20529;-63
2022/05/09 13:55:00;;;;;;;1.60;0.90;;;;;;;;;;4952514;28;20022;-63
2022/05/09 13:57:34;;;;;;;1.70;1.10;;;;;;;;;;4935410;28;20030;-64
2022/05/09 14:00:03;;;;;;;1.10;0.70;;;;;;;;;;4952844;28;20124;-63
2022/05/09 14:02:30;;;;;;;2.80;1.00;;;;;;;;;;4952536;28;20392;-63
2022/05/09 14:05:21;;;;;;;4.05;1.48;;;;;;;;;;4945925;28;20036;-64
2022/05/09 14:07:48;;;;;;;2.72;1.10;;;;;;;;;;4951812;28;20392;-62
2022/05/09 14:10:22;;;;;;;1.30;0.93;;;;;;;;;;4971178;28;20045;-64
2022/05/09 14:12:48;;;;;;;1.73;1.50;;;;;;;;;;4970334;28;20520;-61
2022/05/09 14:15:20;;;;;;;5.32;2.60;;;;;;;;;;4971652;28;20417;-62
2022/05/09 14:17:51;;;;;;;8.95;5.45;;;;;;;;;;4970442;28;20106;-63
2022/05/09 14:20:26;;;;;;;39.13;24.40;;;;;;;;;;4969168;28;20056;-64
2022/05/09 14:22:52;;;;;;;43.20;24.85;;;;;;;;;;4970859;28;20044;-63
2022/05/09 14:30:47;;;;;;;36.47;22.55;;;;;;;;;;4971381;28;20107;-62
2022/05/09 14:33:37;;;;;;;37.90;23.10;;;;;;;;;;4971177;28;20464;-62
2022/05/09 14:36:33;;;;;;;37.95;24.35;;;;;;;;;;4972552;28;20329;-62
2022/05/09 14:39:00;;;;;;;33.00;21.08;;;;;;;;;;4970368;28;20037;-63
2022/05/09 14:41:39;;;;;;;44.67;22.90;;;;;;;;;;4971334;28;20392;-63
2022/05/09 14:44:09;;;;;;;35.08;23.23;;;;;;;;;;4971098;28;20459;-64
2022/05/09 14:46:56;;;;;;;37.95;23.02;;;;;;;;;;4970986;28;20456;-63
2022/05/09 14:49:22;;;;;;;42.53;24.27;;;;;;;;;;4971359;28;20349;-63
2022/05/09 14:52:16;;;;;;;33.67;22.30;;;;;;;;;;4953654;28;20410;-63
2022/05/09 14:54:44;;;;;;;37.35;21.05;;;;;;;;;;4969650;28;20120;-63
2022/05/09 14:57:27;;;;;;;29.20;19.67;;;;;;;;;;4971446;28;20322;-63
2022/05/09 14:59:59;;;;;;;35.72;21.88;;;;;;;;;;4971143;28;20504;-63
2022/05/09 15:02:30;;;;;;;29.10;19.00;;;;;;;;;;4973073;28;20321;-63
2022/05/09 15:04:58;;;;;;;33.45;19.90;;;;;;;;;;4970735;28;20029;-64
2022/05/09 15:07:23;;;;;;;31.75;18.38;;;;;;;;;;4953659;28;20507;-63
2022/05/09 15:09:49;;;;;;;31.23;18.95;;;;;;;;;;4970822;28;20439;-63
2022/05/09 15:12:24;;;;;;;24.85;17.10;;;;;;;;;;4970828;28;20034;-63
2022/05/09 15:14:49;;;;;;;28.30;17.60;;;;;;;;;;4971793;28;20456;-63
2022/05/09 15:17:15;;;;;;;25.08;16.50;;;;;;;;;;4937254;28;20362;-63
2022/05/09 15:19:40;;;;;;;24.00;15.90;;;;;;;;;;4951529;28;20349;-63
2022/05/09 15:22:05;;;;;;;24.00;15.52;;;;;;;;;;4951786;28;20459;-63
2022/05/09 15:24:31;;;;;;;25.05;15.95;;;;;;;;;;4951122;28;20344;-63